sensor_id;sensor_type;location;lat;lon;timestamp;pressure;altitude;pressure_sealevel;temperature;humidity
49813;BME280;35706;52.100;5.056;2023-05-12T00:00:48;101666.78;;;14.13;96.62
49813;BME280;35706;52.100;5.056;2023-05-12T00:01:48;101667.06;;;14.10;96.31
49813;BME280;35706;52.100;5.056;2023-05-12T00:02:49;101664.13;;;14.13;96.41
49813;BME280;35706;52.100;5.056;2023-05-12T00:03:49;101666.63;;;14.05;96.98
49813;BME280;35706;52.100;5.056;2023-05-12T00:04:52;101665.56;;;14.08;96.79
49813;BME280;35706;52.100;5.056;2023-05-12T00:05:52;101666.38;;;14.08;97.00
49813;BME280;35706;52.100;5.056;2023-05-12T00:06:53;101661.34;;;14.05;97.31
49813;BME280;35706;52.100;5.056;2023-05-12T00:07:53;101660.41;;;14.06;97.25
49813;BME280;35706;52.100;5.056;2023-05-12T00:08:54;101664.44;;;14.10;97.13
49813;BME280;35706;52.100;5.056;2023-05-12T00:09:54;101666.25;;;14.10;97.59
49813;BME280;35706;52.100;5.056;2023-05-12T00:10:54;101666.25;;;14.10;97.73
49813;BME280;35706;52.100;5.056;2023-05-12T00:11:55;101666.38;;;14.08;98.00
49813;BME280;35706;52.100;5.056;2023-05-12T00:12:55;101671.53;;;14.10;98.19
49813;BME280;35706;52.100;5.056;2023-05-12T00:13:55;101664.84;;;14.05;98.56
49813;BME280;35706;52.100;5.056;2023-05-12T00:14:56;101656.75;;;14.07;98.21
49813;BME280;35706;52.100;5.056;2023-05-12T00:15:56;101665.00;;;14.04;98.69
49813;BME280;35706;52.100;5.056;2023-05-12T00:16:57;101658.72;;;14.05;98.54
49813;BME280;35706;52.100;5.056;2023-05-12T00:17:58;101666.50;;;13.97;98.97
49813;BME280;35706;52.100;5.056;2023-05-12T00:18:58;101664.28;;;14.02;98.82
49813;BME280;35706;52.100;5.056;2023-05-12T00:19:58;101660.25;;;13.98;99.03
49813;BME280;35706;52.100;5.056;2023-05-12T00:20:59;101659.16;;;14.10;98.63
49813;BME280;35706;52.100;5.056;2023-05-12T00:21:59;101661.50;;;14.03;98.97
49813;BME280;35706;52.100;5.056;2023-05-12T00:22:59;101661.66;;;14.02;99.53
49813;BME280;35706;52.100;5.056;2023-05-12T00:23:59;101665.53;;;13.98;99.82
49813;BME280;35706;52.100;5.056;2023-05-12T00:25:00;101659.25;;;13.99;99.50
49813;BME280;35706;52.100;5.056;2023-05-12T00:26:00;101658.44;;;13.98;99.78
49813;BME280;35706;52.100;5.056;2023-05-12T00:27:00;101660.94;;;14.00;99.73
49813;BME280;35706;52.100;5.056;2023-05-12T00:28:01;101659.84;;;13.93;100.00
49813;BME280;35706;52.100;5.056;2023-05-12T00:29:01;101654.28;;;13.96;100.00
49813;BME280;35706;52.100;5.056;2023-05-12T00:30:01;101659.25;;;13.99;100.00
49813;BME280;35706;52.100;5.056;2023-05-12T00:31:02;101662.06;;;13.97;100.00
49813;BME280;35706;52.100;5.056;2023-05-12T00:32:03;101661.78;;;14.00;100.00
49813;BME280;35706;52.100;5.056;2023-05-12T00:33:03;101654.97;;;13.98;100.00
49813;BME280;35706;52.100;5.056;2023-05-12T00:34:04;101652.56;;;13.95;100.00
49813;BME280;35706;52.100;5.056;2023-05-12T00:35:05;101663.03;;;13.96;100.00
49813;BME280;35706;52.100;5.056;2023-05-12T00:36:06;101648.84;;;13.88;100.00
49813;BME280;35706;52.100;5.056;2023-05-12T00:37:06;101649.81;;;13.96;100.00
49813;BME280;35706;52.100;5.056;2023-05-12T00:38:07;101651.50;;;13.97;100.00
49813;BME280;35706;52.100;5.056;2023-05-12T00:39:07;101647.88;;;13.89;100.00
49813;BME280;35706;52.100;5.056;2023-05-12T00:40:08;101652.03;;;13.91;100.00
49813;BME280;35706;52.100;5.056;2023-05-12T00:41:08;101647.28;;;13.95;100.00
49813;BME280;35706;52.100;5.056;2023-05-12T00:42:09;101649.53;;;13.99;100.00
49813;BME280;35706;52.100;5.056;2023-05-12T00:43:10;101651.91;;;14.02;100.00
49813;BME280;35706;52.100;5.056;2023-05-12T00:44:11;101650.09;;;14.03;100.00
49813;BME280;35706;52.100;5.056;2023-05-12T00:45:11;101647.59;;;14.01;100.00
49813;BME280;35706;52.100;5.056;2023-05-12T00:46:11;101644.78;;;14.03;100.00
49813;BME280;35706;52.100;5.056;2023-05-12T00:47:12;101653.72;;;14.02;100.00
49813;BME280;35706;52.100;5.056;2023-05-12T00:48:13;101653.28;;;13.97;100.00
49813;BME280;35706;52.100;5.056;2023-05-12T00:49:14;101648.28;;;13.94;100.00
49813;BME280;35706;52.100;5.056;2023-05-12T00:50:14;101651.75;;;13.84;100.00
49813;BME280;35706;52.100;5.056;2023-05-12T00:51:15;101654.41;;;13.94;100.00
49813;BME280;35706;52.100;5.056;2023-05-12T00:52:16;101659.69;;;13.94;100.00
49813;BME280;35706;52.100;5.056;2023-05-12T00:53:16;101653.28;;;13.97;100.00
49813;BME280;35706;52.100;5.056;2023-05-12T00:54:17;101646.47;;;13.84;100.00
49813;BME280;35706;52.100;5.056;2023-05-12T00:55:18;101647.72;;;13.80;100.00
49813;BME280;35706;52.100;5.056;2023-05-12T00:56:18;101651.47;;;13.88;100.00
49813;BME280;35706;52.100;5.056;2023-05-12T00:57:21;101646.03;;;13.79;100.00
49813;BME280;35706;52.100;5.056;2023-05-12T00:58:22;101646.19;;;13.78;100.00
49813;BME280;35706;52.100;5.056;2023-05-12T00:59:22;101642.97;;;13.84;100.00
49813;BME280;35706;52.100;5.056;2023-05-12T01:00:22;101648.56;;;13.91;100.00
49813;BME280;35706;52.100;5.056;2023-05-12T01:01:23;101644.66;;;13.85;100.00
49813;BME280;35706;52.100;5.056;2023-05-12T01:02:23;101653.97;;;13.79;100.00
49813;BME280;35706;52.100;5.056;2023-05-12T01:03:24;101644.63;;;13.75;100.00
49813;BME280;35706;52.100;5.056;2023-05-12T01:04:24;101640.91;;;13.78;100.00
49813;BME280;35706;52.100;5.056;2023-05-12T01:05:29;101638.41;;;13.76;100.00
49813;BME280;35706;52.100;5.056;2023-05-12T01:07:34;101647.00;;;13.88;100.00
49813;BME280;35706;52.100;5.056;2023-05-12T01:08:35;101645.50;;;13.85;100.00
49813;BME280;35706;52.100;5.056;2023-05-12T01:09:36;101640.91;;;13.88;100.00
49813;BME280;35706;52.100;5.056;2023-05-12T01:10:42;101640.22;;;13.85;100.00
49813;BME280;35706;52.100;5.056;2023-05-12T01:11:43;101640.50;;;13.82;100.00
49813;BME280;35706;52.100;5.056;2023-05-12T01:12:43;101630.47;;;13.76;100.00
49813;BME280;35706;52.100;5.056;2023-05-12T01:13:43;101633.00;;;13.78;100.00
49813;BME280;35706;52.100;5.056;2023-05-12T01:14:44;101635.91;;;13.84;100.00
49813;BME280;35706;52.100;5.056;2023-05-12T01:15:46;101630.59;;;13.75;100.00
49813;BME280;35706;52.100;5.056;2023-05-12T01:16:50;101626.16;;;13.75;100.00
49813;BME280;35706;52.100;5.056;2023-05-12T01:18:00;101630.75;;;13.83;100.00
49813;BME280;35706;52.100;5.056;2023-05-12T01:19:04;101633.13;;;13.76;100.00
49813;BME280;35706;52.100;5.056;2023-05-12T01:20:07;101627.13;;;13.84;100.00
49813;BME280;35706;52.100;5.056;2023-05-12T01:21:09;101621.31;;;13.80;100.00
49813;BME280;35706;52.100;5.056;2023-05-12T01:22:10;101632.28;;;13.76;100.00
49813;BME280;35706;52.100;5.056;2023-05-12T01:23:14;101627.00;;;13.76;100.00
49813;BME280;35706;52.100;5.056;2023-05-12T01:24:19;101626.84;;;13.77;100.00
49813;BME280;35706;52.100;5.056;2023-05-12T01:25:22;101624.06;;;13.79;100.00
49813;BME280;35706;52.100;5.056;2023-05-12T01:26:24;101629.78;;;13.74;100.00
49813;BME280;35706;52.100;5.056;2023-05-12T01:27:25;101628.78;;;13.75;100.00
49813;BME280;35706;52.100;5.056;2023-05-12T01:28:26;101620.31;;;13.72;100.00
49813;BME280;35706;52.100;5.056;2023-05-12T01:29:27;101631.44;;;13.75;100.00
49813;BME280;35706;52.100;5.056;2023-05-12T01:30:28;101626.16;;;13.75;100.00
49813;BME280;35706;52.100;5.056;2023-05-12T01:31:29;101630.63;;;13.84;100.00
49813;BME280;35706;52.100;5.056;2023-05-12T01:32:31;101622.81;;;13.83;100.00
49813;BME280;35706;52.100;5.056;2023-05-12T01:33:31;101627.53;;;13.79;100.00
49813;BME280;35706;52.100;5.056;2023-05-12T01:34:33;101629.78;;;13.74;100.00
49813;BME280;35706;52.100;5.056;2023-05-12T01:35:33;101628.63;;;13.67;100.00
49813;BME280;35706;52.100;5.056;2023-05-12T01:36:33;101619.78;;;13.78;100.00
49813;BME280;35706;52.100;5.056;2023-05-12T01:37:34;101628.25;;;13.72;100.00
49813;BME280;35706;52.100;5.056;2023-05-12T01:38:34;101626.56;;;13.71;100.00
49813;BME280;35706;52.100;5.056;2023-05-12T01:39:35;101622.25;;;13.60;100.00
49813;BME280;35706;52.100;5.056;2023-05-12T01:40:35;101621.69;;;13.66;100.00
49813;BME280;35706;52.100;5.056;2023-05-12T01:41:36;101613.91;;;13.64;100.00
49813;BME280;35706;52.100;5.056;2023-05-12T01:42:38;101611.97;;;13.57;100.00
49813;BME280;35706;52.100;5.056;2023-05-12T01:43:39;101616.00;;;13.61;100.00
49813;BME280;35706;52.100;5.056;2023-05-12T01:44:40;101618.78;;;13.59;100.00
49813;BME280;35706;52.100;5.056;2023-05-12T01:45:40;101621.81;;;13.64;100.00
49813;BME280;35706;52.100;5.056;2023-05-12T01:46:40;101614.88;;;13.63;100.00
49813;BME280;35706;52.100;5.056;2023-05-12T01:47:40;101609.72;;;13.62;100.00
49813;BME280;35706;52.100;5.056;2023-05-12T01:48:41;101609.19;;;13.68;100.00
49813;BME280;35706;52.100;5.056;2023-05-12T01:49:42;101617.94;;;13.69;100.00
49813;BME280;35706;52.100;5.056;2023-05-12T01:50:43;101616.13;;;13.69;100.00
49813;BME280;35706;52.100;5.056;2023-05-12T01:51:43;101617.25;;;13.67;100.00
49813;BME280;35706;52.100;5.056;2023-05-12T01:52:43;101617.66;;;13.62;100.00
49813;BME280;35706;52.100;5.056;2023-05-12T01:53:45;101612.25;;;13.63;100.00
49813;BME280;35706;52.100;5.056;2023-05-12T01:54:45;101617.09;;;13.58;100.00
49813;BME280;35706;52.100;5.056;2023-05-12T01:55:45;101615.16;;;13.60;100.00
49813;BME280;35706;52.100;5.056;2023-05-12T01:56:46;101621.13;;;13.62;100.00
49813;BME280;35706;52.100;5.056;2023-05-12T01:57:46;101625.28;;;13.65;100.00
49813;BME280;35706;52.100;5.056;2023-05-12T01:58:46;101609.44;;;13.65;100.00
49813;BME280;35706;52.100;5.056;2023-05-12T01:59:47;101619.31;;;13.63;100.00
49813;BME280;35706;52.100;5.056;2023-05-12T02:00:47;101609.03;;;13.60;100.00
49813;BME280;35706;52.100;5.056;2023-05-12T02:01:47;101614.59;;;13.57;100.00
49813;BME280;35706;52.100;5.056;2023-05-12T02:02:47;101610.00;;;13.69;100.00
49813;BME280;35706;52.100;5.056;2023-05-12T02:03:48;101611.97;;;13.67;100.00
49813;BME280;35706;52.100;5.056;2023-05-12T02:04:48;101616.81;;;13.71;100.00
49813;BME280;35706;52.100;5.056;2023-05-12T02:05:49;101614.63;;;13.76;100.00
49813;BME280;35706;52.100;5.056;2023-05-12T02:06:49;101612.94;;;13.75;100.00
49813;BME280;35706;52.100;5.056;2023-05-12T02:07:51;101618.63;;;13.71;100.00
49813;BME280;35706;52.100;5.056;2023-05-12T02:08:51;101609.59;;;13.63;100.00
49813;BME280;35706;52.100;5.056;2023-05-12T02:09:52;101606.69;;;13.67;100.00
49813;BME280;35706;52.100;5.056;2023-05-12T02:11:06;101606.13;;;13.73;100.00
49813;BME280;35706;52.100;5.056;2023-05-12T02:12:07;101616.13;;;13.69;100.00
49813;BME280;35706;52.100;5.056;2023-05-12T02:13:07;101613.06;;;13.64;100.00
49813;BME280;35706;52.100;5.056;2023-05-12T02:14:07;101611.56;;;13.61;100.00
49813;BME280;35706;52.100;5.056;2023-05-12T02:15:08;101611.56;;;13.61;100.00
49813;BME280;35706;52.100;5.056;2023-05-12T02:16:09;101608.34;;;13.68;100.00
49813;BME280;35706;52.100;5.056;2023-05-12T02:17:10;101610.84;;;13.69;100.00
49813;BME280;35706;52.100;5.056;2023-05-12T02:18:10;101611.81;;;13.68;100.00
49813;BME280;35706;52.100;5.056;2023-05-12T02:19:10;101610.31;;;13.66;100.00
49813;BME280;35706;52.100;5.056;2023-05-12T02:20:11;101617.66;;;13.62;100.00
49813;BME280;35706;52.100;5.056;2023-05-12T02:21:11;101605.16;;;13.64;100.00
49813;BME280;35706;52.100;5.056;2023-05-12T02:22:12;101607.50;;;13.67;100.00
49813;BME280;35706;52.100;5.056;2023-05-12T02:23:12;101608.50;;;13.76;100.00
49813;BME280;35706;52.100;5.056;2023-05-12T02:24:12;101601.81;;;13.62;100.00
49813;BME280;35706;52.100;5.056;2023-05-12T02:25:13;101603.47;;;13.63;100.00
49813;BME280;35706;52.100;5.056;2023-05-12T02:26:13;101609.75;;;13.72;100.00
49813;BME280;35706;52.100;5.056;2023-05-12T02:27:14;101610.16;;;13.67;100.00
49813;BME280;35706;52.100;5.056;2023-05-12T02:28:14;101616.97;;;13.70;100.00
49813;BME280;35706;52.100;5.056;2023-05-12T02:29:15;101607.78;;;13.64;100.00
49813;BME280;35706;52.100;5.056;2023-05-12T02:30:15;101605.28;;;13.62;100.00
49813;BME280;35706;52.100;5.056;2023-05-12T02:31:16;101603.19;;;13.66;100.00
49813;BME280;35706;52.100;5.056;2023-05-12T02:32:16;101606.97;;;13.63;100.00
49813;BME280;35706;52.100;5.056;2023-05-12T02:33:17;101606.69;;;13.67;100.00
49813;BME280;35706;52.100;5.056;2023-05-12T02:34:18;101609.03;;;13.60;100.00
49813;BME280;35706;52.100;5.056;2023-05-12T02:35:18;101600.81;;;13.63;100.00
49813;BME280;35706;52.100;5.056;2023-05-12T02:36:19;101603.63;;;13.61;100.00
49813;BME280;35706;52.100;5.056;2023-05-12T02:37:19;101604.44;;;13.62;100.00
49813;BME280;35706;52.100;5.056;2023-05-12T02:38:19;101604.75;;;13.59;100.00
49813;BME280;35706;52.100;5.056;2023-05-12T02:39:20;101598.19;;;13.63;100.00
49813;BME280;35706;52.100;5.056;2023-05-12T02:40:20;101605.56;;;13.59;100.00
49813;BME280;35706;52.100;5.056;2023-05-12T02:41:20;101606.94;;;13.54;100.00
49813;BME280;35706;52.100;5.056;2023-05-12T02:42:21;101608.06;;;13.61;100.00
49813;BME280;35706;52.100;5.056;2023-05-12T02:43:21;101606.09;;;13.63;100.00
49813;BME280;35706;52.100;5.056;2023-05-12T02:44:22;101606.81;;;13.55;100.00
49813;BME280;35706;52.100;5.056;2023-05-12T02:45:22;101598.88;;;13.65;100.00
49813;BME280;35706;52.100;5.056;2023-05-12T02:46:22;101602.94;;;13.59;100.00
49813;BME280;35706;52.100;5.056;2023-05-12T02:47:23;101602.94;;;13.59;100.00
49813;BME280;35706;52.100;5.056;2023-05-12T02:48:23;101605.00;;;13.56;100.00
49813;BME280;35706;52.100;5.056;2023-05-12T02:49:23;101605.56;;;13.59;100.00
49813;BME280;35706;52.100;5.056;2023-05-12T02:50:24;101597.91;;;13.56;100.00
49813;BME280;35706;52.100;5.056;2023-05-12T02:51:24;101599.59;;;13.57;100.00
49813;BME280;35706;52.100;5.056;2023-05-12T02:52:24;101597.09;;;13.66;100.00
49813;BME280;35706;52.100;5.056;2023-05-12T02:53:25;101603.63;;;13.61;100.00
49813;BME280;35706;52.100;5.056;2023-05-12T02:54:26;101602.22;;;13.57;100.00
49813;BME280;35706;52.100;5.056;2023-05-12T02:55:26;101601.41;;;13.57;100.00
49813;BME280;35706;52.100;5.056;2023-05-12T02:56:29;101597.34;;;13.53;100.00
49813;BME280;35706;52.100;5.056;2023-05-12T02:57:29;101600.28;;;13.59;100.00
49813;BME280;35706;52.100;5.056;2023-05-12T02:58:33;101596.13;;;13.57;100.00
49813;BME280;35706;52.100;5.056;2023-05-12T02:59:33;101596.25;;;13.55;100.00
49813;BME280;35706;52.100;5.056;2023-05-12T03:00:34;101603.06;;;13.68;100.00
49813;BME280;35706;52.100;5.056;2023-05-12T03:01:34;101600.56;;;13.66;100.00
49813;BME280;35706;52.100;5.056;2023-05-12T03:02:37;101595.69;;;13.71;100.00
49813;BME280;35706;52.100;5.056;2023-05-12T03:03:37;101593.31;;;13.58;100.00
49813;BME280;35706;52.100;5.056;2023-05-12T03:04:38;101599.72;;;13.56;100.00
49813;BME280;35706;52.100;5.056;2023-05-12T03:05:38;101592.78;;;13.55;100.00
49813;BME280;35706;52.100;5.056;2023-05-12T03:06:39;101595.81;;;13.50;100.00
49813;BME280;35706;52.100;5.056;2023-05-12T03:07:39;101595.41;;;13.55;100.00
49813;BME280;35706;52.100;5.056;2023-05-12T03:08:40;101591.91;;;13.54;100.00
49813;BME280;35706;52.100;5.056;2023-05-12T03:09:40;101591.66;;;13.57;100.00
49813;BME280;35706;52.100;5.056;2023-05-12T03:10:41;101599.03;;;13.63;100.00
49813;BME280;35706;52.100;5.056;2023-05-12T03:11:42;101591.38;;;13.51;100.00
49813;BME280;35706;52.100;5.056;2023-05-12T03:12:43;101590.69;;;13.49;100.00
49813;BME280;35706;52.100;5.056;2023-05-12T03:13:43;101582.19;;;13.45;100.00
49813;BME280;35706;52.100;5.056;2023-05-12T03:14:43;101587.19;;;13.48;100.00
49813;BME280;35706;52.100;5.056;2023-05-12T03:15:44;101589.69;;;13.50;100.00
49813;BME280;35706;52.100;5.056;2023-05-12T03:16:44;101581.78;;;13.50;100.00
49813;BME280;35706;52.100;5.056;2023-05-12T03:17:45;101588.03;;;13.49;100.00
49813;BME280;35706;52.100;5.056;2023-05-12T03:18:45;101588.03;;;13.49;100.00
49813;BME280;35706;52.100;5.056;2023-05-12T03:19:45;101578.72;;;13.44;100.00
49813;BME280;35706;52.100;5.056;2023-05-12T03:20:46;101581.78;;;13.50;100.00
49813;BME280;35706;52.100;5.056;2023-05-12T03:21:46;101579.97;;;13.50;100.00
49813;BME280;35706;52.100;5.056;2023-05-12T03:22:47;101582.06;;;13.56;100.00
49813;BME280;35706;52.100;5.056;2023-05-12T03:23:47;101582.91;;;13.57;100.00
49813;BME280;35706;52.100;5.056;2023-05-12T03:24:48;101581.09;;;13.57;100.00
49813;BME280;35706;52.100;5.056;2023-05-12T03:25:48;101577.72;;;13.46;100.00
49813;BME280;35706;52.100;5.056;2023-05-12T03:26:48;101578.72;;;13.44;100.00
49813;BME280;35706;52.100;5.056;2023-05-12T03:27:48;101582.88;;;13.47;100.00
49813;BME280;35706;52.100;5.056;2023-05-12T03:28:49;101579.66;;;13.43;100.00
49813;BME280;35706;52.100;5.056;2023-05-12T03:29:49;101586.34;;;13.38;100.00
49813;BME280;35706;52.100;5.056;2023-05-12T03:30:49;101574.97;;;13.47;100.00
49813;BME280;35706;52.100;5.056;2023-05-12T03:31:49;101583.47;;;13.51;100.00
49813;BME280;35706;52.100;5.056;2023-05-12T03:32:50;101577.88;;;13.34;100.00
49813;BME280;35706;52.100;5.056;2023-05-12T03:33:50;101585.47;;;13.28;100.00
49813;BME280;35706;52.100;5.056;2023-05-12T03:34:50;101581.28;;;13.25;100.00
49813;BME280;35706;52.100;5.056;2023-05-12T03:35:51;101577.28;;;13.31;100.00
49813;BME280;35706;52.100;5.056;2023-05-12T03:36:51;101572.13;;;13.29;100.00
49813;BME280;35706;52.100;5.056;2023-05-12T03:37:51;101573.28;;;13.36;100.00
49813;BME280;35706;52.100;5.056;2023-05-12T03:38:52;101569.25;;;13.32;100.00
49813;BME280;35706;52.100;5.056;2023-05-12T03:39:52;101580.63;;;13.33;100.00
49813;BME280;35706;52.100;5.056;2023-05-12T03:41:04;101573.69;;;13.32;100.00
49813;BME280;35706;52.100;5.056;2023-05-12T03:42:05;101576.59;;;13.29;100.00
49813;BME280;35706;52.100;5.056;2023-05-12T03:43:06;101573.22;;;13.27;100.00
49813;BME280;35706;52.100;5.056;2023-05-12T03:44:06;101574.66;;;13.31;100.00
49813;BME280;35706;52.100;5.056;2023-05-12T03:45:08;101575.22;;;13.34;100.00
49813;BME280;35706;52.100;5.056;2023-05-12T03:46:08;101569.66;;;13.37;100.00
49813;BME280;35706;52.100;5.056;2023-05-12T03:47:08;101575.22;;;13.34;100.00
49813;BME280;35706;52.100;5.056;2023-05-12T03:48:09;101571.44;;;13.27;100.00
49813;BME280;35706;52.100;5.056;2023-05-12T03:49:09;101570.34;;;13.30;100.00
49813;BME280;35706;52.100;5.056;2023-05-12T03:50:10;101573.94;;;13.29;100.00
49813;BME280;35706;52.100;5.056;2023-05-12T03:51:11;101577.25;;;13.21;100.00
49813;BME280;35706;52.100;5.056;2023-05-12T03:52:11;101578.91;;;13.22;100.00
49813;BME280;35706;52.100;5.056;2023-05-12T03:53:11;101583.31;;;13.12;100.00
49813;BME280;35706;52.100;5.056;2023-05-12T03:54:12;101577.22;;;13.11;100.00
49813;BME280;35706;52.100;5.056;2023-05-12T03:55:12;101589.84;;;13.08;100.00
49813;BME280;35706;52.100;5.056;2023-05-12T03:56:13;101580.13;;;13.08;100.00
49813;BME280;35706;52.100;5.056;2023-05-12T03:57:14;101582.19;;;13.04;100.00
49813;BME280;35706;52.100;5.056;2023-05-12T03:58:15;101577.88;;;13.03;100.00
49813;BME280;35706;52.100;5.056;2023-05-12T03:59:15;101583.16;;;13.03;100.00
49813;BME280;35706;52.100;5.056;2023-05-12T04:00:16;101582.06;;;13.06;100.00
49813;BME280;35706;52.100;5.056;2023-05-12T04:01:16;101576.22;;;13.02;100.00
49813;BME280;35706;52.100;5.056;2023-05-12T04:02:16;101581.38;;;13.04;100.00
49813;BME280;35706;52.100;5.056;2023-05-12T04:03:17;101581.50;;;13.02;100.00
49813;BME280;35706;52.100;5.056;2023-05-12T04:04:17;101573.75;;;13.11;100.00
49813;BME280;35706;52.100;5.056;2023-05-12T04:05:18;101578.75;;;13.04;100.00
49813;BME280;35706;52.100;5.056;2023-05-12T04:06:18;101574.56;;;13.11;100.00
49813;BME280;35706;52.100;5.056;2023-05-12T04:07:18;101575.41;;;13.02;100.00
49813;BME280;35706;52.100;5.056;2023-05-12T04:08:19;101577.19;;;13.01;100.00
49813;BME280;35706;52.100;5.056;2023-05-12T04:09:19;101578.47;;;13.07;100.00
49813;BME280;35706;52.100;5.056;2023-05-12T04:10:20;101574.00;;;13.08;100.00
49813;BME280;35706;52.100;5.056;2023-05-12T04:11:21;101571.94;;;13.11;100.00
49813;BME280;35706;52.100;5.056;2023-05-12T04:12:22;101564.59;;;13.15;100.00
49813;BME280;35706;52.100;5.056;2023-05-12T04:13:23;101567.53;;;13.21;100.00
49813;BME280;35706;52.100;5.056;2023-05-12T04:14:24;101575.44;;;13.21;100.00
49813;BME280;35706;52.100;5.056;2023-05-12T04:15:24;101580.31;;;13.26;100.00
49813;BME280;35706;52.100;5.056;2023-05-12T04:16:24;101586.25;;;13.18;100.00
49813;BME280;35706;52.100;5.056;2023-05-12T04:17:25;101574.16;;;13.16;100.00
49813;BME280;35706;52.100;5.056;2023-05-12T04:18:26;101575.00;;;13.16;100.00
49813;BME280;35706;52.100;5.056;2023-05-12T04:19:27;101573.47;;;13.14;100.00
49813;BME280;35706;52.100;5.056;2023-05-12T04:20:27;101567.50;;;13.12;100.00
49813;BME280;35706;52.100;5.056;2023-05-12T04:21:27;101570.25;;;13.00;100.00
49813;BME280;35706;52.100;5.056;2023-05-12T04:22:28;101576.06;;;12.94;100.00
49813;BME280;35706;52.100;5.056;2023-05-12T04:23:29;101572.47;;;12.95;100.00
49813;BME280;35706;52.100;5.056;2023-05-12T04:24:29;101565.91;;;12.99;100.00
49813;BME280;35706;52.100;5.056;2023-05-12T04:25:30;101563.84;;;13.03;100.00
49813;BME280;35706;52.100;5.056;2023-05-12T04:26:30;101564.25;;;12.98;100.00
49813;BME280;35706;52.100;5.056;2023-05-12T04:27:30;101553.44;;;13.01;100.00
49813;BME280;35706;52.100;5.056;2023-05-12T04:28:31;101556.75;;;13.03;100.00
49813;BME280;35706;52.100;5.056;2023-05-12T04:29:34;101552.72;;;12.99;100.00
49813;BME280;35706;52.100;5.056;2023-05-12T04:30:35;101558.72;;;13.01;100.00
49813;BME280;35706;52.100;5.056;2023-05-12T04:31:36;101570.25;;;13.00;100.00
49813;BME280;35706;52.100;5.056;2023-05-12T04:32:36;101562.19;;;13.02;100.00
49813;BME280;35706;52.100;5.056;2023-05-12T04:33:37;101567.19;;;12.95;100.00
49813;BME280;35706;52.100;5.056;2023-05-12T04:34:37;101561.31;;;12.92;100.00
49813;BME280;35706;52.100;5.056;2023-05-12T04:35:37;101574.81;;;12.98;100.00
49813;BME280;35706;52.100;5.056;2023-05-12T04:36:37;101570.38;;;12.99;100.00
49813;BME280;35706;52.100;5.056;2023-05-12T04:37:38;101573.84;;;12.99;100.00
49813;BME280;35706;52.100;5.056;2023-05-12T04:38:39;101577.06;;;13.03;100.00
49813;BME280;35706;52.100;5.056;2023-05-12T04:39:39;101573.28;;;12.96;100.00
49813;BME280;35706;52.100;5.056;2023-05-12T04:40:40;101571.19;;;12.99;100.00
49813;BME280;35706;52.100;5.056;2023-05-12T04:41:40;101583.44;;;13.00;100.00
49813;BME280;35706;52.100;5.056;2023-05-12T04:42:40;101573.19;;;13.07;100.00
49813;BME280;35706;52.100;5.056;2023-05-12T04:43:40;101568.47;;;13.11;100.00
49813;BME280;35706;52.100;5.056;2023-05-12T04:44:41;101581.50;;;13.02;100.00
49813;BME280;35706;52.100;5.056;2023-05-12T04:45:41;101582.44;;;13.01;100.00
49813;BME280;35706;52.100;5.056;2023-05-12T04:46:41;101585.66;;;13.05;100.00
49813;BME280;35706;52.100;5.056;2023-05-12T04:47:42;101574.56;;;13.11;100.00
49813;BME280;35706;52.100;5.056;2023-05-12T04:48:43;101588.59;;;13.12;100.00
49813;BME280;35706;52.100;5.056;2023-05-12T04:49:43;101583.16;;;12.94;100.00
49813;BME280;35706;52.100;5.056;2023-05-12T04:50:44;101592.47;;;12.98;100.00
49813;BME280;35706;52.100;5.056;2023-05-12T04:51:44;101593.69;;;12.94;100.00
49813;BME280;35706;52.100;5.056;2023-05-12T04:52:44;101602.56;;;12.93;100.00
49813;BME280;35706;52.100;5.056;2023-05-12T04:53:45;101600.63;;;12.95;100.00
49813;BME280;35706;52.100;5.056;2023-05-12T04:54:45;101608.53;;;12.95;100.00
49813;BME280;35706;52.100;5.056;2023-05-12T04:55:45;101604.13;;;12.95;100.00
49813;BME280;35706;52.100;5.056;2023-05-12T04:56:46;101603.16;;;12.96;100.00
49813;BME280;35706;52.100;5.056;2023-05-12T04:57:46;101608.41;;;12.96;100.00
49813;BME280;35706;52.100;5.056;2023-05-12T04:58:47;101612.72;;;12.97;100.00
49813;BME280;35706;52.100;5.056;2023-05-12T04:59:47;101610.66;;;13.01;100.00
49813;BME280;35706;52.100;5.056;2023-05-12T05:00:47;101613.97;;;12.93;100.00
49813;BME280;35706;52.100;5.056;2023-05-12T05:01:48;101613.97;;;12.93;100.00
49813;BME280;35706;52.100;5.056;2023-05-12T05:02:48;101626.47;;;12.91;100.00
49813;BME280;35706;52.100;5.056;2023-05-12T05:03:48;101619.63;;;12.89;100.00
49813;BME280;35706;52.100;5.056;2023-05-12T05:04:49;101617.84;;;12.89;100.00
49813;BME280;35706;52.100;5.056;2023-05-12T05:05:49;101622.59;;;12.95;100.00
49813;BME280;35706;52.100;5.056;2023-05-12T05:06:49;101622.59;;;12.95;100.00
49813;BME280;35706;52.100;5.056;2023-05-12T05:07:50;101620.09;;;12.94;100.00
49813;BME280;35706;52.100;5.056;2023-05-12T05:08:50;101623.69;;;12.93;100.00
49813;BME280;35706;52.100;5.056;2023-05-12T05:09:52;101626.31;;;12.93;100.00
49813;BME280;35706;52.100;5.056;2023-05-12T05:10:52;101620.44;;;12.79;100.00
49813;BME280;35706;52.100;5.056;2023-05-12T05:11:53;101623.91;;;12.80;100.00
49813;BME280;35706;52.100;5.056;2023-05-12T05:12:53;101628.94;;;12.83;100.00
49813;BME280;35706;52.100;5.056;2023-05-12T05:13:53;101625.06;;;12.87;100.00
49813;BME280;35706;52.100;5.056;2023-05-12T05:14:54;101628.41;;;12.89;100.00